Laust Maersk — OVZV2 — position and weather

sailwx.info

Track history (hours):
 
Tides and Currents Weather Stations Pressure Air Temp Water Temp Dewpoint Dewpoint Depression Visibility Wind Speed Wind Dir Waves Ship Positions

Laust Maersk

Last reported at 2017-Nov-18 13:59 UTC. Time now 2017-Nov-18 14:20 UTC.
Position S 27°22' E 153°10'.

Length 265.8 m; beam 37.3 m; draft 14 m.

Type: Ship (hazmat cat A). MMSI: 219968000.

Date/timePositionNaut miles runAvg speedWind from/ knotsBaromVisibWave heightAir tempDewpointWater temp
2017-Nov-18 13:59S 27°22' E 153°10'0 0.0
2017-Nov-18 13:29S 27°22' E 153°10'0 0.0
2017-Nov-18 12:59S 27°22' E 153°10'0 0.0
2017-Nov-18 12:29S 27°22' E 153°10'0 0.0
2017-Nov-18 11:59S 27°22' E 153°10'0 0.0
2017-Nov-18 11:26S 27°22' E 153°10'0 0.0
2017-Nov-18 10:59S 27°22' E 153°10'0 0.0
2017-Nov-18 10:29S 27°22' E 153°10'0 0.0
2017-Nov-18 09:59S 27°22' E 153°10'0 0.0
2017-Nov-18 09:29S 27°22' E 153°10'0 0.0
2017-Nov-18 08:59S 27°22' E 153°10'0 0.0
2017-Nov-18 08:29S 27°22' E 153°10'0 0.0
2017-Nov-18 07:59S 27°22' E 153°10'0 0.0
2017-Nov-18 07:29S 27°22' E 153°10'0 0.0
2017-Nov-18 06:59S 27°22' E 153°10'0 0.0
2017-Nov-18 06:29S 27°22' E 153°10'0 0.0
2017-Nov-18 05:59S 27°22' E 153°10'0 0.0
2017-Nov-18 05:29S 27°22' E 153°10'0 0.0
2017-Nov-18 04:59S 27°22' E 153°10'0 0.0
2017-Nov-18 04:29S 27°22' E 153°10'0 0.0
2017-Nov-18 04:00S 27°22' E 153°10'0 0.0
2017-Nov-18 03:29S 27°22' E 153°10'0 0.0
2017-Nov-18 02:56S 27°22' E 153°10'0 0.0
2017-Nov-18 02:29S 27°22' E 153°10'0 0.0
2017-Nov-18 01:50S 27°22' E 153°10'0 0.0
2017-Nov-18 01:29S 27°22' E 153°10'0 0.0
2017-Nov-18 00:59S 27°22' E 153°10'0 0.0
2017-Nov-18 00:29S 27°22' E 153°10'0 0.0
2017-Nov-17 23:59S 27°22' E 153°10'0 0.0
2017-Nov-17 23:29S 27°22' E 153°10'0 0.0
2017-Nov-17 22:56S 27°22' E 153°10'0 0.0
2017-Nov-17 22:20S 27°22' E 153°10'0 0.0
2017-Nov-17 21:56S 27°22' E 153°10'0 0.0
2017-Nov-17 21:26S 27°22' E 153°10'0 0.0
2017-Nov-17 20:50S 27°22' E 153°10'0 0.0
2017-Nov-17 20:26S 27°22' E 153°10'0 0.0
2017-Nov-17 19:56S 27°22' E 153°10'0 0.0
2017-Nov-17 19:26S 27°22' E 153°10'0 0.0
2017-Nov-17 18:56S 27°22' E 153°10'0 0.0
2017-Nov-17 18:29S 27°22' E 153°10'0 0.0
2017-Nov-17 17:56S 27°22' E 153°10'0 0.0
2017-Nov-17 17:23S 27°22' E 153°10'0 0.0
2017-Nov-17 16:47S 27°22' E 153°10'0 0.0
2017-Nov-17 16:26S 27°22' E 153°10'0 0.0
2017-Nov-17 15:56S 27°22' E 153°10'0 0.1
2017-Nov-17 15:26S 27°22' E 153°10'0 0.1
2017-Nov-17 14:56S 27°22' E 153°10'0 0.0
2017-Nov-17 14:26S 27°22' E 153°10'0 0.0
2017-Nov-17 13:44S 27°22' E 153°10'0 0.0
2017-Nov-17 13:26S 27°22' E 153°10'0 0.0
2017-Nov-17 12:56S 27°22' E 153°10'0 0.0
2017-Nov-17 12:29S 27°22' E 153°10'1 1.4
2017-Nov-17 11:59S 27°21' E 153°11'510.6
2017-Nov-17 11:31S 27°17' E 153°14'815.0
2017-Nov-17 10:59S 27°12' E 153°21'715.0
2017-Nov-17 10:30S 27°05' E 153°19'713.8
2017-Nov-17 10:00S 26°59' E 153°14'816.3
2017-Nov-17 09:29S 26°52' E 153°09'  
2017-Nov-08 20:29N 01°15' E 104°07'714.2
2017-Nov-08 19:58N 01°14' E 104°00'715.5
2017-Nov-08 19:30N 01°12' E 103°53'4 7.8
2017-Nov-08 19:00N 01°12' E 103°49'3 5.0
2017-Nov-08 18:30N 01°14' E 103°47'4 8.4
2017-Nov-08 18:00N 01°17' E 103°45'1 1.5
2017-Nov-08 17:29N 01°17' E 103°46'0 0.0
2017-Nov-08 16:59N 01°17' E 103°46'0 0.0
2017-Nov-08 16:29N 01°17' E 103°46'0 0.0
2017-Nov-08 15:59N 01°17' E 103°46'0 0.0
2017-Nov-08 15:29N 01°17' E 103°46'0 0.0
2017-Nov-08 14:59N 01°17' E 103°46'0 0.0
2017-Nov-08 14:30N 01°17' E 103°46'0 0.0
2017-Nov-08 14:00N 01°17' E 103°46'  
Track history (hours):
 
Tides and Currents Weather Stations Pressure Air Temp Water Temp Dewpoint Dewpoint Depression Visibility Wind Speed Wind Dir Waves Ship Positions

Laust Maersk

Last reported at 2017-Nov-18 13:59 UTC. Time now 2017-Nov-18 14:20 UTC.
Position S 27°22' E 153°10'.

Length 265.8 m; beam 37.3 m; draft 14 m.

Type: Ship (hazmat cat A). MMSI: 219968000.

Date/timePositionNaut miles runAvg speedWind from/ knotsBaromVisibWave heightAir tempDewpointWater temp
2017-Nov-18 13:59S 27°22' E 153°10'0 0.0
2017-Nov-18 13:29S 27°22' E 153°10'0 0.0
2017-Nov-18 12:59S 27°22' E 153°10'0 0.0
2017-Nov-18 12:29S 27°22' E 153°10'0 0.0
2017-Nov-18 11:59S 27°22' E 153°10'0 0.0
2017-Nov-18 11:26S 27°22' E 153°10'0 0.0
2017-Nov-18 10:59S 27°22' E 153°10'0 0.0
2017-Nov-18 10:29S 27°22' E 153°10'0 0.0
2017-Nov-18 09:59S 27°22' E 153°10'0 0.0
2017-Nov-18 09:29S 27°22' E 153°10'0 0.0
2017-Nov-18 08:59S 27°22' E 153°10'0 0.0
2017-Nov-18 08:29S 27°22' E 153°10'0 0.0
2017-Nov-18 07:59S 27°22' E 153°10'0 0.0
2017-Nov-18 07:29S 27°22' E 153°10'0 0.0
2017-Nov-18 06:59S 27°22' E 153°10'0 0.0
2017-Nov-18 06:29S 27°22' E 153°10'0 0.0
2017-Nov-18 05:59S 27°22' E 153°10'0 0.0
2017-Nov-18 05:29S 27°22' E 153°10'0 0.0
2017-Nov-18 04:59S 27°22' E 153°10'0 0.0
2017-Nov-18 04:29S 27°22' E 153°10'0 0.0
2017-Nov-18 04:00S 27°22' E 153°10'0 0.0
2017-Nov-18 03:29S 27°22' E 153°10'0 0.0
2017-Nov-18 02:56S 27°22' E 153°10'0 0.0
2017-Nov-18 02:29S 27°22' E 153°10'0 0.0
2017-Nov-18 01:50S 27°22' E 153°10'0 0.0
2017-Nov-18 01:29S 27°22' E 153°10'0 0.0
2017-Nov-18 00:59S 27°22' E 153°10'0 0.0
2017-Nov-18 00:29S 27°22' E 153°10'0 0.0
2017-Nov-17 23:59S 27°22' E 153°10'0 0.0
2017-Nov-17 23:29S 27°22' E 153°10'0 0.0
2017-Nov-17 22:56S 27°22' E 153°10'0 0.0
2017-Nov-17 22:20S 27°22' E 153°10'0 0.0
2017-Nov-17 21:56S 27°22' E 153°10'0 0.0
2017-Nov-17 21:26S 27°22' E 153°10'0 0.0
2017-Nov-17 20:50S 27°22' E 153°10'0 0.0
2017-Nov-17 20:26S 27°22' E 153°10'0 0.0
2017-Nov-17 19:56S 27°22' E 153°10'0 0.0
2017-Nov-17 19:26S 27°22' E 153°10'0 0.0
2017-Nov-17 18:56S 27°22' E 153°10'0 0.0
2017-Nov-17 18:29S 27°22' E 153°10'0 0.0
2017-Nov-17 17:56S 27°22' E 153°10'0 0.0
2017-Nov-17 17:23S 27°22' E 153°10'0 0.0
2017-Nov-17 16:47S 27°22' E 153°10'0 0.0
2017-Nov-17 16:26S 27°22' E 153°10'0 0.0
2017-Nov-17 15:56S 27°22' E 153°10'0 0.1
2017-Nov-17 15:26S 27°22' E 153°10'0 0.1
2017-Nov-17 14:56S 27°22' E 153°10'0 0.0
2017-Nov-17 14:26S 27°22' E 153°10'0 0.0
2017-Nov-17 13:44S 27°22' E 153°10'0 0.0
2017-Nov-17 13:26S 27°22' E 153°10'0 0.0
2017-Nov-17 12:56S 27°22' E 153°10'0 0.0
2017-Nov-17 12:29S 27°22' E 153°10'1 1.4
2017-Nov-17 11:59S 27°21' E 153°11'510.6
2017-Nov-17 11:31S 27°17' E 153°14'815.0
2017-Nov-17 10:59S 27°12' E 153°21'715.0
2017-Nov-17 10:30S 27°05' E 153°19'713.8
2017-Nov-17 10:00S 26°59' E 153°14'816.3
2017-Nov-17 09:29S 26°52' E 153°09'  
2017-Nov-08 20:29N 01°15' E 104°07'714.2
2017-Nov-08 19:58N 01°14' E 104°00'715.5
2017-Nov-08 19:30N 01°12' E 103°53'4 7.8
2017-Nov-08 19:00N 01°12' E 103°49'3 5.0
2017-Nov-08 18:30N 01°14' E 103°47'4 8.4
2017-Nov-08 18:00N 01°17' E 103°45'1 1.5
2017-Nov-08 17:29N 01°17' E 103°46'0 0.0
2017-Nov-08 16:59N 01°17' E 103°46'0 0.0
2017-Nov-08 16:29N 01°17' E 103°46'0 0.0
2017-Nov-08 15:59N 01°17' E 103°46'0 0.0
2017-Nov-08 15:29N 01°17' E 103°46'0 0.0
2017-Nov-08 14:59N 01°17' E 103°46'0 0.0
2017-Nov-08 14:30N 01°17' E 103°46'0 0.0
2017-Nov-08 14:00N 01°17' E 103°46'  

Dump ship's entire track history